createdAt,value
2023-05-16T00:00:00.972Z,100.0
2023-05-16T00:02:00.734Z,100.0
2023-05-16T00:04:00.646Z,100.0
2023-05-16T00:06:00.688Z,100.0
2023-05-16T00:08:00.560Z,100.0
2023-05-16T00:10:01.175Z,100.0
2023-05-16T00:12:00.458Z,100.0
2023-05-16T00:14:00.658Z,100.0
2023-05-16T00:16:00.628Z,100.0
2023-05-16T00:18:01.040Z,100.0
2023-05-16T00:20:00.661Z,100.0
2023-05-16T00:22:01.062Z,100.0
2023-05-16T00:24:00.439Z,100.0
2023-05-16T00:26:00.500Z,100.0
2023-05-16T00:28:00.618Z,100.0
2023-05-16T00:30:01.050Z,100.0
2023-05-16T00:32:00.660Z,100.0
2023-05-16T00:34:00.877Z,100.0
2023-05-16T00:36:01.038Z,100.0
2023-05-16T00:38:00.458Z,100.0
2023-05-16T00:40:00.417Z,100.0
2023-05-16T00:42:00.809Z,100.0
2023-05-16T00:44:00.388Z,100.0
2023-05-16T00:46:00.620Z,100.0
2023-05-16T00:48:00.969Z,100.0
2023-05-16T00:50:01.052Z,100.0
2023-05-16T00:52:00.548Z,100.0
2023-05-16T00:54:01.159Z,100.0
2023-05-16T00:56:00.995Z,100.0
2023-05-16T00:58:00.659Z,100.0
2023-05-16T01:00:01.290Z,100.0
2023-05-16T01:02:01.400Z,100.0
2023-05-16T01:04:00.666Z,100.0
2023-05-16T01:06:00.710Z,100.0
2023-05-16T01:08:00.486Z,100.0
2023-05-16T01:10:02.415Z,100.0
2023-05-16T01:12:10.584Z,100.0
2023-05-16T01:14:11.052Z,100.0
2023-05-16T01:16:08.775Z,100.0
2023-05-16T01:18:09.517Z,100.0
2023-05-16T01:20:08.693Z,100.0
2023-05-16T01:22:05.728Z,100.0
2023-05-16T01:24:08.525Z,100.0
2023-05-16T01:26:14.510Z,100.0
2023-05-16T01:28:01.370Z,100.0
2023-05-16T01:30:13.111Z,100.0
2023-05-16T01:32:00.689Z,100.0
2023-05-16T01:34:00.525Z,100.0
2023-05-16T01:36:10.075Z,100.0
2023-05-16T01:38:09.849Z,100.0
2023-05-16T01:40:07.796Z,100.0
2023-05-16T01:42:04.509Z,100.0
2023-05-16T01:44:06.450Z,100.0
2023-05-16T01:46:08.219Z,100.0
2023-05-16T01:48:07.849Z,100.0
2023-05-16T01:50:07.378Z,100.0
2023-05-16T01:52:06.903Z,100.0
2023-05-16T01:54:05.038Z,100.0
2023-05-16T01:56:01.643Z,100.0
2023-05-16T01:58:02.250Z,100.0
2023-05-16T02:00:00.629Z,100.0
2023-05-16T02:02:01.283Z,100.0
2023-05-16T02:04:00.796Z,100.0
2023-05-16T02:06:01.041Z,100.0
2023-05-16T02:08:00.788Z,100.0
2023-05-16T02:10:00.754Z,100.0
2023-05-16T02:12:01.395Z,100.0
2023-05-16T02:14:00.569Z,100.0
2023-05-16T02:16:00.793Z,100.0
2023-05-16T02:18:01.053Z,100.0
2023-05-16T02:20:00.481Z,100.0
2023-05-16T02:22:00.536Z,100.0
2023-05-16T02:24:00.510Z,100.0
2023-05-16T02:26:00.798Z,100.0
2023-05-16T02:28:00.547Z,100.0
2023-05-16T02:30:00.944Z,100.0
2023-05-16T02:32:00.446Z,100.0
2023-05-16T02:34:01.170Z,100.0
2023-05-16T02:36:00.393Z,100.0
2023-05-16T02:38:00.740Z,100.0
2023-05-16T02:40:00.450Z,100.0
2023-05-16T02:42:00.728Z,100.0
2023-05-16T02:44:00.610Z,100.0
2023-05-16T02:46:03.445Z,100.0
2023-05-16T02:48:00.545Z,100.0
2023-05-16T02:50:00.779Z,100.0
2023-05-16T02:52:00.517Z,100.0
2023-05-16T02:54:00.803Z,100.0
2023-05-16T02:56:00.462Z,100.0
2023-05-16T02:58:00.424Z,100.0
2023-05-16T03:00:00.665Z,100.0
2023-05-16T03:02:00.490Z,100.0
2023-05-16T03:04:00.575Z,100.0
2023-05-16T03:06:01.020Z,100.0
2023-05-16T03:08:00.407Z,100.0
2023-05-16T03:10:00.627Z,100.0
2023-05-16T03:12:00.809Z,100.0
2023-05-16T03:14:01.958Z,100.0
2023-05-16T03:16:00.612Z,100.0
2023-05-16T03:18:00.857Z,100.0
2023-05-16T03:20:00.394Z,100.0
2023-05-16T03:22:00.500Z,100.0
2023-05-16T03:24:01.080Z,100.0
2023-05-16T03:26:00.827Z,100.0
2023-05-16T03:28:00.647Z,100.0
2023-05-16T03:30:00.907Z,100.0
2023-05-16T03:32:00.666Z,100.0
2023-05-16T03:34:00.457Z,100.0
2023-05-16T03:36:00.590Z,100.0
2023-05-16T03:38:01.006Z,100.0
2023-05-16T03:40:00.641Z,100.0
2023-05-16T03:42:00.990Z,100.0
2023-05-16T03:44:00.402Z,100.0
2023-05-16T03:46:00.747Z,100.0
2023-05-16T03:48:00.798Z,100.0
2023-05-16T03:50:00.535Z,100.0
2023-05-16T03:52:00.623Z,100.0
2023-05-16T03:54:00.715Z,100.0
2023-05-16T03:56:00.514Z,100.0
2023-05-16T03:58:00.526Z,100.0
2023-05-16T04:00:00.964Z,100.0
2023-05-16T04:02:00.441Z,100.0
2023-05-16T04:04:00.644Z,100.0
2023-05-16T04:06:02.981Z,100.0
2023-05-16T04:08:00.412Z,100.0
2023-05-16T04:10:00.676Z,100.0
2023-05-16T04:12:00.815Z,100.0
2023-05-16T04:14:00.778Z,100.0
2023-05-16T04:16:00.515Z,100.0
2023-05-16T04:18:00.826Z,100.0
2023-05-16T04:20:00.640Z,100.0
2023-05-16T04:22:00.636Z,100.0
2023-05-16T04:24:00.418Z,100.0
2023-05-16T04:26:00.747Z,100.0
2023-05-16T04:28:00.395Z,100.0
2023-05-16T04:30:00.889Z,100.0
2023-05-16T04:32:01.490Z,100.0
2023-05-16T04:34:00.413Z,100.0
2023-05-16T04:36:00.520Z,100.0
2023-05-16T04:38:00.683Z,100.0
2023-05-16T04:40:00.607Z,100.0
2023-05-16T04:42:00.973Z,100.0
2023-05-16T04:44:01.626Z,100.0
2023-05-16T04:46:00.536Z,100.0
2023-05-16T04:48:01.022Z,100.0
2023-05-16T04:50:00.622Z,100.0
2023-05-16T04:52:00.879Z,100.0
2023-05-16T04:54:00.802Z,100.0
2023-05-16T04:56:00.450Z,100.0
2023-05-16T04:58:00.643Z,100.0
2023-05-16T05:00:00.592Z,100.0
2023-05-16T05:02:00.545Z,100.0
2023-05-16T05:04:00.454Z,100.0
2023-05-16T05:06:00.833Z,100.0
2023-05-16T05:08:00.423Z,100.0
2023-05-16T05:10:01.118Z,100.0
2023-05-16T05:12:00.693Z,100.0
2023-05-16T05:14:00.620Z,100.0
2023-05-16T05:16:00.498Z,100.0
2023-05-16T05:18:01.007Z,100.0
2023-05-16T05:20:02.891Z,100.0
2023-05-16T05:22:00.738Z,100.0
2023-05-16T05:24:00.537Z,100.0
2023-05-16T05:26:00.430Z,100.0
2023-05-16T05:28:00.666Z,100.0
2023-05-16T05:30:01.519Z,100.0
2023-05-16T05:32:01.019Z,100.0
2023-05-16T05:34:00.424Z,100.0
2023-05-16T05:36:03.296Z,100.0
2023-05-16T05:38:00.454Z,100.0
2023-05-16T05:40:00.841Z,100.0
2023-05-16T05:42:00.812Z,100.0
2023-05-16T05:44:00.922Z,100.0
2023-05-16T05:46:00.581Z,100.0
2023-05-16T05:48:00.796Z,100.0
2023-05-16T05:50:00.480Z,100.0
2023-05-16T05:52:00.791Z,100.0
2023-05-16T05:54:01.378Z,100.0
2023-05-16T05:56:00.812Z,100.0
2023-05-16T05:58:00.604Z,100.0
2023-05-16T06:00:00.928Z,100.0
2023-05-16T06:02:01.168Z,100.0
2023-05-16T06:04:02.340Z,100.0
2023-05-16T06:06:00.977Z,100.0
2023-05-16T06:08:00.402Z,100.0
2023-05-16T06:10:01.593Z,100.0
2023-05-16T06:12:00.403Z,100.0
2023-05-16T06:14:00.698Z,100.0
2023-05-16T06:16:00.838Z,100.0
2023-05-16T06:18:00.888Z,100.0
2023-05-16T06:20:00.567Z,100.0
2023-05-16T06:22:00.734Z,100.0
2023-05-16T06:24:00.528Z,100.0
2023-05-16T06:26:00.940Z,100.0
2023-05-16T06:28:00.911Z,100.0
2023-05-16T06:30:00.741Z,100.0
2023-05-16T06:32:00.605Z,100.0
2023-05-16T06:34:00.499Z,100.0
2023-05-16T06:36:00.408Z,100.0
2023-05-16T06:38:00.879Z,100.0
2023-05-16T06:40:00.640Z,100.0
2023-05-16T06:42:00.862Z,100.0
2023-05-16T06:44:00.451Z,100.0
2023-05-16T06:46:00.965Z,100.0
2023-05-16T06:48:00.406Z,100.0
2023-05-16T06:50:00.430Z,100.0
2023-05-16T06:52:01.445Z,100.0
2023-05-16T06:54:03.415Z,100.0
2023-05-16T06:56:00.502Z,100.0
2023-05-16T06:58:00.721Z,100.0
2023-05-16T07:00:00.634Z,100.0
2023-05-16T07:02:00.505Z,100.0
2023-05-16T07:04:01.114Z,100.0
2023-05-16T07:06:00.904Z,100.0
2023-05-16T07:08:00.428Z,100.0
2023-05-16T07:10:01.037Z,100.0
2023-05-16T07:12:00.514Z,100.0
2023-05-16T07:14:00.401Z,100.0
2023-05-16T07:16:00.462Z,100.0
2023-05-16T07:18:00.832Z,100.0
2023-05-16T07:20:02.853Z,100.0
2023-05-16T07:22:00.907Z,100.0
2023-05-16T07:24:00.544Z,100.0
2023-05-16T07:26:00.576Z,100.0
2023-05-16T07:28:00.755Z,100.0
2023-05-16T07:30:00.718Z,100.0
2023-05-16T07:32:00.665Z,100.0
2023-05-16T07:34:00.751Z,100.0
2023-05-16T07:36:12.222Z,100.0
2023-05-16T07:38:00.524Z,100.0
2023-05-16T07:40:01.113Z,100.0
2023-05-16T07:42:00.782Z,100.0
2023-05-16T07:44:00.399Z,100.0
2023-05-16T07:46:01.150Z,100.0
2023-05-16T07:48:00.494Z,100.0
2023-05-16T07:50:00.572Z,100.0
2023-05-16T07:52:00.439Z,100.0
2023-05-16T07:54:00.759Z,100.0
2023-05-16T07:56:00.533Z,100.0
2023-05-16T07:58:01.503Z,100.0
2023-05-16T08:00:00.452Z,100.0
2023-05-16T08:02:00.616Z,100.0
2023-05-16T08:04:00.717Z,100.0
2023-05-16T08:06:00.760Z,100.0
2023-05-16T08:08:00.880Z,100.0
2023-05-16T08:10:00.510Z,100.0
2023-05-16T08:12:00.621Z,100.0
2023-05-16T08:14:00.512Z,100.0
2023-05-16T08:16:00.590Z,100.0
2023-05-16T08:18:01.025Z,100.0
2023-05-16T08:20:00.958Z,100.0
2023-05-16T08:22:00.730Z,100.0
2023-05-16T08:24:00.646Z,100.0
2023-05-16T08:26:00.575Z,100.0
2023-05-16T08:28:00.952Z,100.0
2023-05-16T08:30:00.929Z,100.0
2023-05-16T08:32:00.505Z,100.0
2023-05-16T08:34:00.549Z,100.0
2023-05-16T08:36:00.506Z,100.0
2023-05-16T08:38:00.813Z,100.0
2023-05-16T08:40:00.418Z,100.0
2023-05-16T08:42:00.985Z,100.0
2023-05-16T08:44:00.552Z,100.0
2023-05-16T08:46:00.418Z,100.0
2023-05-16T08:48:01.382Z,100.0
2023-05-16T08:50:02.209Z,100.0
2023-05-16T08:52:02.590Z,100.0
2023-05-16T08:54:05.104Z,100.0
2023-05-16T08:56:02.525Z,100.0
2023-05-16T08:58:00.838Z,100.0
2023-05-16T09:00:01.091Z,100.0
2023-05-16T09:02:00.646Z,100.0
2023-05-16T09:04:02.942Z,100.0
2023-05-16T09:06:02.418Z,100.0
2023-05-16T09:08:00.436Z,100.0
2023-05-16T09:10:00.418Z,100.0
2023-05-16T09:12:00.934Z,100.0
2023-05-16T09:14:00.442Z,100.0
2023-05-16T09:16:08.335Z,100.0
2023-05-16T09:18:01.098Z,100.0
2023-05-16T09:20:07.959Z,100.0
2023-05-16T09:22:01.560Z,100.0
2023-05-16T09:24:02.382Z,100.0
2023-05-16T09:26:01.035Z,100.0
2023-05-16T09:28:00.856Z,100.0
2023-05-16T09:30:01.184Z,100.0
2023-05-16T09:32:07.965Z,100.0
2023-05-16T09:34:00.442Z,100.0
2023-05-16T09:36:02.231Z,100.0
2023-05-16T09:38:00.408Z,100.0
2023-05-16T09:40:02.105Z,100.0
2023-05-16T09:42:00.907Z,100.0
2023-05-16T09:44:03.151Z,100.0
2023-05-16T09:46:01.091Z,100.0
2023-05-16T09:48:04.045Z,100.0
2023-05-16T09:50:00.696Z,100.0
2023-05-16T09:52:00.747Z,100.0
2023-05-16T09:54:00.883Z,100.0
2023-05-16T09:56:02.187Z,100.0
2023-05-16T09:58:00.564Z,100.0
2023-05-16T10:00:00.728Z,100.0
2023-05-16T10:02:00.492Z,98.9
2023-05-16T10:04:00.654Z,92.9
2023-05-16T10:06:02.309Z,89.0
2023-05-16T10:08:01.820Z,89.6
2023-05-16T10:10:05.100Z,85.9
2023-05-16T10:12:02.625Z,87.1
2023-05-16T10:14:01.610Z,85.1
2023-05-16T10:16:06.728Z,85.1
2023-05-16T10:18:01.205Z,84.5
2023-05-16T10:20:01.248Z,84.8
2023-05-16T10:22:04.205Z,85.4
2023-05-16T10:24:05.727Z,83.3
2023-05-16T10:26:02.635Z,84.6
2023-05-16T10:28:01.997Z,81.7
2023-05-16T10:30:01.945Z,81.0
2023-05-16T10:32:02.458Z,82.9
2023-05-16T10:34:00.788Z,83.5
2023-05-16T10:36:01.525Z,80.4
2023-05-16T10:38:01.246Z,80.3
2023-05-16T10:40:01.769Z,80.9
2023-05-16T10:42:01.449Z,79.1
2023-05-16T10:44:00.711Z,78.7
2023-05-16T10:46:03.930Z,77.3
2023-05-16T10:48:03.786Z,75.4
2023-05-16T10:50:00.785Z,78.0
2023-05-16T10:52:03.781Z,80.4
2023-05-16T10:54:04.854Z,77.8
2023-05-16T10:56:09.948Z,77.3
2023-05-16T10:58:02.139Z,78.0
2023-05-16T11:00:00.937Z,79.0
2023-05-16T11:02:00.978Z,76.2
2023-05-16T11:04:06.246Z,78.1
2023-05-16T11:06:01.466Z,76.5
2023-05-16T11:08:02.587Z,74.6
2023-05-16T11:10:06.864Z,71.6
2023-05-16T11:12:01.259Z,73.0
2023-05-16T11:14:02.292Z,67.8
2023-05-16T11:16:20.259Z,65.2
2023-05-16T11:18:06.235Z,63.1
2023-05-16T11:20:00.559Z,63.8
2023-05-16T11:22:08.447Z,62.4
2023-05-16T11:24:21.485Z,59.9
2023-05-16T11:26:02.439Z,58.7
2023-05-16T11:28:01.067Z,58.5
2023-05-16T11:30:10.799Z,59.7
2023-05-16T11:32:02.690Z,61.3
2023-05-16T11:34:00.657Z,59.8
2023-05-16T11:36:14.666Z,58.9
2023-05-16T11:38:00.711Z,57.5
2023-05-16T11:40:01.587Z,55.6
2023-05-16T11:42:00.798Z,55.7
2023-05-16T11:44:00.413Z,53.5
2023-05-16T11:46:00.437Z,55.0
2023-05-16T11:48:01.883Z,56.9
2023-05-16T11:50:03.299Z,55.3
2023-05-16T11:52:00.808Z,56.6
2023-05-16T11:54:01.456Z,57.8
2023-05-16T11:56:00.510Z,59.0
2023-05-16T11:58:00.635Z,56.3
2023-05-16T12:00:01.606Z,55.2
2023-05-16T12:02:02.971Z,54.1
2023-05-16T12:04:00.857Z,52.8
2023-05-16T12:06:00.752Z,51.0
2023-05-16T12:08:00.646Z,49.0
2023-05-16T12:10:03.457Z,50.5
2023-05-16T12:12:04.167Z,46.0
2023-05-16T12:14:00.644Z,48.0
2023-05-16T12:16:00.812Z,49.9
2023-05-16T12:18:01.247Z,52.1
2023-05-16T12:20:01.233Z,53.0
2023-05-16T12:22:00.503Z,54.2
2023-05-16T12:24:01.249Z,51.8
2023-05-16T12:26:02.306Z,50.5
2023-05-16T12:28:02.156Z,47.6
2023-05-16T12:30:00.866Z,47.2
2023-05-16T12:32:00.742Z,46.6
2023-05-16T12:34:00.809Z,44.4
2023-05-16T12:36:00.442Z,46.3
2023-05-16T12:38:03.433Z,44.6
2023-05-16T12:40:00.614Z,45.1
2023-05-16T12:42:04.517Z,45.2
2023-05-16T12:44:10.910Z,46.0
2023-05-16T12:46:00.475Z,44.4
2023-05-16T12:48:03.749Z,46.4
2023-05-16T12:50:00.831Z,45.4
2023-05-16T12:52:00.545Z,45.1
2023-05-16T12:54:10.345Z,44.7
2023-05-16T12:56:00.736Z,44.0
2023-05-16T12:58:00.529Z,42.7
2023-05-16T13:00:00.651Z,46.1
2023-05-16T13:02:00.773Z,44.9
2023-05-16T13:04:01.405Z,42.7
2023-05-16T13:06:01.487Z,43.1
2023-05-16T13:08:00.521Z,41.4
2023-05-16T13:10:00.440Z,38.5
2023-05-16T13:12:00.434Z,40.5
2023-05-16T13:14:00.683Z,40.4
2023-05-16T13:16:00.470Z,40.9
2023-05-16T13:18:01.038Z,39.8
2023-05-16T13:20:00.817Z,41.6
2023-05-16T13:22:00.566Z,44.2
2023-05-16T13:24:00.542Z,45.2
2023-05-16T13:26:00.537Z,44.7
2023-05-16T13:28:00.450Z,43.5
2023-05-16T13:30:01.564Z,45.2
2023-05-16T13:32:00.436Z,44.0
2023-05-16T13:34:00.380Z,45.2
2023-05-16T13:36:00.933Z,44.2
2023-05-16T13:38:00.406Z,44.7
2023-05-16T13:40:00.641Z,44.5
2023-05-16T13:42:00.938Z,43.9
2023-05-16T13:44:00.701Z,41.8
2023-05-16T13:46:00.623Z,44.2
2023-05-16T13:48:00.762Z,43.9
2023-05-16T13:50:00.456Z,45.1
2023-05-16T13:52:00.582Z,43.7
2023-05-16T13:54:00.898Z,43.7
2023-05-16T13:56:00.578Z,44.6
2023-05-16T13:58:00.832Z,44.1
2023-05-16T14:02:00.440Z,46.0
2023-05-16T14:04:00.575Z,45.2
2023-05-16T14:06:00.938Z,44.3
2023-05-16T14:08:00.512Z,43.5
2023-05-16T14:10:01.188Z,41.2
2023-05-16T14:12:00.633Z,42.0
2023-05-16T14:14:00.751Z,43.0
2023-05-16T14:16:00.913Z,44.4
2023-05-16T14:18:00.950Z,44.3
2023-05-16T14:20:00.619Z,45.7
2023-05-16T14:22:00.581Z,46.0
2023-05-16T14:24:00.577Z,45.8
2023-05-16T14:26:00.423Z,45.2
2023-05-16T14:28:00.624Z,45.9
2023-05-16T14:30:01.005Z,46.3
2023-05-16T14:32:00.605Z,42.6
2023-05-16T14:34:01.352Z,41.6
2023-05-16T14:36:00.439Z,42.0
2023-05-16T14:38:00.625Z,43.5
2023-05-16T14:40:00.400Z,44.0
2023-05-16T14:42:00.777Z,44.5
2023-05-16T14:44:00.717Z,45.2
2023-05-16T14:46:01.030Z,45.2
2023-05-16T14:48:00.917Z,45.8
2023-05-16T14:50:00.416Z,45.9
2023-05-16T14:52:00.560Z,44.8
2023-05-16T14:54:01.010Z,42.4
2023-05-16T14:56:00.576Z,40.4
2023-05-16T14:58:00.619Z,38.9
2023-05-16T15:00:01.021Z,37.0
2023-05-16T15:02:00.488Z,37.0
2023-05-16T15:04:00.968Z,37.4
2023-05-16T15:06:00.937Z,37.2
2023-05-16T15:08:00.630Z,35.1
2023-05-16T15:10:01.146Z,36.6
2023-05-16T15:12:00.515Z,38.0
2023-05-16T15:14:00.396Z,38.4
2023-05-16T15:16:00.561Z,38.7
2023-05-16T15:18:00.759Z,40.2
2023-05-16T15:20:00.929Z,39.1
2023-05-16T15:22:00.595Z,39.4
2023-05-16T15:24:00.680Z,39.9
2023-05-16T15:26:00.417Z,41.7
2023-05-16T15:28:00.414Z,42.5
2023-05-16T15:30:01.425Z,42.0
2023-05-16T15:32:03.309Z,41.4
2023-05-16T15:34:00.393Z,40.8
2023-05-16T15:36:00.572Z,42.2
2023-05-16T15:38:00.480Z,42.2
2023-05-16T15:40:00.486Z,43.0
2023-05-16T15:42:10.608Z,41.8
2023-05-16T15:44:00.801Z,41.8
2023-05-16T15:46:00.777Z,42.3
2023-05-16T15:48:00.803Z,43.2
2023-05-16T15:50:00.498Z,43.8
2023-05-16T15:52:00.454Z,43.8
2023-05-16T15:54:01.228Z,41.9
2023-05-16T15:56:00.578Z,41.8
2023-05-16T15:58:00.532Z,41.6
2023-05-16T16:00:01.192Z,40.8
2023-05-16T16:02:00.533Z,42.0
2023-05-16T16:04:00.621Z,41.6
2023-05-16T16:06:00.992Z,42.6
2023-05-16T16:08:00.595Z,44.2
2023-05-16T16:10:00.745Z,44.5
2023-05-16T16:12:00.692Z,43.5
2023-05-16T16:14:00.571Z,42.4
2023-05-16T16:16:00.467Z,42.6
2023-05-16T16:18:01.057Z,43.4
2023-05-16T16:20:01.022Z,43.9
2023-05-16T16:22:00.609Z,45.0
2023-05-16T16:24:00.673Z,45.8
2023-05-16T16:26:00.642Z,45.4
2023-05-16T16:28:00.576Z,45.8
2023-05-16T16:30:00.871Z,47.5
2023-05-16T16:32:01.183Z,46.7
2023-05-16T16:34:00.472Z,46.5
2023-05-16T16:36:00.824Z,46.7
2023-05-16T16:38:06.804Z,46.8
2023-05-16T16:40:00.493Z,47.3
2023-05-16T16:42:00.870Z,46.6
2023-05-16T16:44:00.472Z,46.7
2023-05-16T16:46:01.214Z,47.0
2023-05-16T16:48:00.793Z,47.6
2023-05-16T16:50:00.930Z,46.8
2023-05-16T16:52:00.770Z,47.1
2023-05-16T16:54:00.781Z,47.4
2023-05-16T16:56:00.624Z,48.3
2023-05-16T16:58:01.067Z,47.6
2023-05-16T17:00:00.625Z,48.5
2023-05-16T17:02:00.431Z,49.1
2023-05-16T17:04:00.406Z,48.8
2023-05-16T17:06:00.994Z,49.5
2023-05-16T17:08:00.534Z,48.6
2023-05-16T17:10:00.851Z,48.7
2023-05-16T17:12:00.596Z,49.0
2023-05-16T17:14:00.762Z,49.7
2023-05-16T17:16:00.912Z,49.7
2023-05-16T17:18:00.892Z,49.8
2023-05-16T17:20:00.421Z,50.1
2023-05-16T17:22:00.934Z,50.5
2023-05-16T17:24:01.728Z,51.4
2023-05-16T17:26:01.046Z,50.1
2023-05-16T17:28:00.624Z,50.0
2023-05-16T17:30:00.784Z,49.4
2023-05-16T17:32:00.812Z,48.5
2023-05-16T17:34:00.517Z,48.7
2023-05-16T17:36:00.443Z,48.9
2023-05-16T17:38:00.843Z,49.3
2023-05-16T17:40:00.581Z,49.3
2023-05-16T17:42:00.718Z,49.6
2023-05-16T17:44:01.204Z,50.2
2023-05-16T17:46:00.427Z,51.1
2023-05-16T17:48:00.479Z,50.9
2023-05-16T17:50:00.721Z,51.6
2023-05-16T17:52:00.530Z,52.0
2023-05-16T17:54:00.720Z,51.6
2023-05-16T17:56:00.501Z,52.1
2023-05-16T17:58:00.458Z,52.4
2023-05-16T18:00:00.569Z,53.0
2023-05-16T18:02:00.472Z,54.0
2023-05-16T18:04:00.901Z,54.2
2023-05-16T18:06:00.917Z,54.7
2023-05-16T18:08:00.412Z,54.5
2023-05-16T18:10:00.525Z,54.9
2023-05-16T18:12:00.505Z,54.9
2023-05-16T18:14:00.669Z,55.6
2023-05-16T18:16:00.731Z,55.8
2023-05-16T18:18:00.882Z,56.4
2023-05-16T18:20:00.604Z,56.5
2023-05-16T18:22:00.798Z,56.9
2023-05-16T18:24:00.689Z,56.9
2023-05-16T18:26:00.440Z,57.3
2023-05-16T18:28:00.392Z,57.9
2023-05-16T18:30:01.684Z,58.4
2023-05-16T18:32:00.886Z,58.6
2023-05-16T18:34:00.395Z,59.2
2023-05-16T18:36:01.012Z,59.3
2023-05-16T18:38:00.921Z,59.5
2023-05-16T18:40:00.425Z,59.7
2023-05-16T18:42:00.930Z,59.5
2023-05-16T18:44:00.819Z,60.5
2023-05-16T18:46:00.570Z,60.8
2023-05-16T18:48:00.539Z,60.6
2023-05-16T18:50:00.390Z,60.3
2023-05-16T18:52:00.464Z,60.5
2023-05-16T18:54:01.449Z,61.2
2023-05-16T18:56:00.697Z,60.4
2023-05-16T18:58:00.874Z,59.8
2023-05-16T19:00:00.525Z,60.3
2023-05-16T19:02:00.866Z,60.8
2023-05-16T19:04:00.662Z,60.8
2023-05-16T19:06:00.873Z,60.8
2023-05-16T19:08:00.493Z,61.5
2023-05-16T19:10:03.391Z,61.4
2023-05-16T19:12:00.420Z,61.4
2023-05-16T19:14:00.638Z,61.4
2023-05-16T19:16:00.593Z,62.0
2023-05-16T19:18:01.203Z,62.6
2023-05-16T19:20:00.865Z,63.1
2023-05-16T19:22:00.704Z,62.9
2023-05-16T19:24:00.578Z,63.0
2023-05-16T19:26:00.485Z,63.7
2023-05-16T19:28:00.416Z,63.5
2023-05-16T19:30:00.778Z,64.2
2023-05-16T19:32:00.576Z,64.4
2023-05-16T19:34:00.475Z,65.7
2023-05-16T19:36:03.252Z,65.7
2023-05-16T19:38:00.977Z,65.5
2023-05-16T19:40:00.391Z,65.9
2023-05-16T19:42:07.145Z,66.3
2023-05-16T19:44:00.923Z,66.5
2023-05-16T19:46:00.816Z,66.7
2023-05-16T19:48:00.592Z,66.6
2023-05-16T19:50:00.400Z,68.7
2023-05-16T19:52:00.917Z,67.1
2023-05-16T19:54:00.678Z,67.6
2023-05-16T19:56:00.794Z,67.3
2023-05-16T19:58:00.807Z,68.1
2023-05-16T20:00:00.524Z,67.2
2023-05-16T20:02:00.537Z,68.4
2023-05-16T20:04:00.708Z,68.2
2023-05-16T20:06:00.985Z,68.4
2023-05-16T20:08:01.138Z,69.2
2023-05-16T20:10:00.852Z,70.0
2023-05-16T20:12:00.398Z,69.3
2023-05-16T20:14:00.763Z,69.5
2023-05-16T20:16:00.428Z,70.5
2023-05-16T20:18:00.945Z,70.0
2023-05-16T20:20:00.630Z,70.2
2023-05-16T20:22:00.464Z,71.0
2023-05-16T20:24:00.747Z,71.7
2023-05-16T20:26:00.630Z,72.8
2023-05-16T20:28:00.736Z,72.5
2023-05-16T20:30:01.065Z,72.4
2023-05-16T20:32:00.800Z,72.5
2023-05-16T20:34:00.618Z,73.6
2023-05-16T20:36:00.846Z,73.7
2023-05-16T20:38:00.517Z,74.2
2023-05-16T20:40:00.724Z,75.5
2023-05-16T20:42:00.655Z,75.9
2023-05-16T20:44:00.497Z,75.5
2023-05-16T20:46:00.727Z,75.7
2023-05-16T20:48:00.963Z,76.4
2023-05-16T20:50:00.434Z,77.0
2023-05-16T20:52:00.929Z,78.6
2023-05-16T20:54:00.430Z,78.8
2023-05-16T20:56:00.649Z,79.0
2023-05-16T20:58:00.830Z,79.0
2023-05-16T21:00:00.837Z,80.2
2023-05-16T21:02:00.540Z,79.8
2023-05-16T21:04:00.899Z,81.0
2023-05-16T21:06:00.805Z,81.5
2023-05-16T21:08:00.509Z,81.5
2023-05-16T21:10:01.027Z,83.4
2023-05-16T21:12:00.575Z,84.9
2023-05-16T21:14:01.731Z,87.5
2023-05-16T21:16:00.955Z,87.9
2023-05-16T21:18:00.456Z,88.5
2023-05-16T21:20:00.451Z,90.3
2023-05-16T21:22:00.876Z,90.2
2023-05-16T21:24:00.458Z,91.4
2023-05-16T21:26:00.422Z,90.3
2023-05-16T21:28:00.809Z,90.3
2023-05-16T21:30:00.565Z,90.4
2023-05-16T21:32:00.412Z,90.8
2023-05-16T21:34:00.879Z,91.5
2023-05-16T21:36:00.576Z,91.5
2023-05-16T21:38:00.526Z,90.9
2023-05-16T21:40:00.901Z,90.6
2023-05-16T21:42:00.669Z,90.7
2023-05-16T21:44:00.416Z,90.3
2023-05-16T21:46:00.916Z,91.0
2023-05-16T21:48:00.723Z,90.1
2023-05-16T21:50:00.380Z,90.3
2023-05-16T21:52:00.780Z,90.6
2023-05-16T21:54:00.443Z,90.8
2023-05-16T21:56:00.661Z,90.8
2023-05-16T21:58:00.895Z,90.8
2023-05-16T22:00:00.735Z,93.6
2023-05-16T22:02:00.419Z,100.0
2023-05-16T22:04:00.769Z,98.2
2023-05-16T22:06:00.852Z,93.5
2023-05-16T22:08:00.507Z,92.4
2023-05-16T22:10:01.119Z,92.7
2023-05-16T22:12:00.580Z,93.9
2023-05-16T22:14:00.572Z,94.9
2023-05-16T22:16:05.307Z,94.8
2023-05-16T22:18:00.747Z,95.0
2023-05-16T22:20:00.635Z,96.7
2023-05-16T22:22:00.754Z,96.5
2023-05-16T22:24:00.423Z,96.6
2023-05-16T22:26:00.629Z,95.7
2023-05-16T22:28:00.781Z,97.0
2023-05-16T22:30:00.452Z,98.8
2023-05-16T22:32:00.567Z,99.6
2023-05-16T22:34:01.170Z,100.0
2023-05-16T22:36:00.676Z,100.0
2023-05-16T22:38:00.522Z,100.0
2023-05-16T22:40:00.705Z,100.0
2023-05-16T22:42:00.854Z,100.0
2023-05-16T22:44:00.481Z,100.0
2023-05-16T22:46:03.295Z,100.0
2023-05-16T22:48:00.737Z,100.0
2023-05-16T22:50:00.406Z,100.0
2023-05-16T22:52:00.864Z,100.0
2023-05-16T22:54:00.504Z,100.0
2023-05-16T22:56:00.928Z,100.0
2023-05-16T22:58:00.644Z,100.0
2023-05-16T23:00:00.420Z,100.0
2023-05-16T23:02:00.394Z,100.0
2023-05-16T23:04:01.421Z,100.0
2023-05-16T23:06:00.424Z,100.0
2023-05-16T23:08:00.451Z,100.0
2023-05-16T23:10:00.488Z,100.0
2023-05-16T23:12:00.790Z,100.0
2023-05-16T23:14:00.946Z,100.0
2023-05-16T23:16:00.427Z,100.0
2023-05-16T23:18:00.675Z,100.0
2023-05-16T23:20:00.794Z,99.1
2023-05-16T23:22:00.411Z,99.8
2023-05-16T23:24:00.543Z,100.0
2023-05-16T23:26:00.884Z,99.7
2023-05-16T23:28:00.723Z,99.3
2023-05-16T23:30:00.424Z,99.6
2023-05-16T23:32:00.566Z,99.4
2023-05-16T23:34:00.900Z,99.0
2023-05-16T23:36:00.383Z,99.4
2023-05-16T23:38:00.887Z,99.9
2023-05-16T23:40:00.919Z,100.0
2023-05-16T23:42:00.595Z,100.0
2023-05-16T23:44:00.410Z,100.0
2023-05-16T23:46:00.445Z,100.0
2023-05-16T23:48:00.489Z,100.0
2023-05-16T23:50:00.942Z,100.0
2023-05-16T23:52:00.950Z,100.0
2023-05-16T23:54:00.688Z,100.0
2023-05-16T23:56:00.426Z,100.0
2023-05-16T23:58:00.964Z,100.0
